Terminal Aerodrome Forecast
Issued by NWS Billings, MT

Home | Current Version | Previous Version | Text Only | Print | Product List | Glossary On
Versions: 1 2 3 4 5 6 7 8 9 10 11 12 13
000
FTUS45 KBYZ 240539
TAFMLS
TAF
KMLS 240539Z 2406/2506 06006KT P6SM VCSH OVC050
     FM240700 VRB05KT 6SM -RA BR SCT008 BKN015 OVC020
     FM241000 35005KT P6SM VCSH SCT008 BKN015 OVC020
     FM241600 36006KT P6SM VCSH OVC025
     FM242000 VRB05KT P6SM BKN040=

USA.gov is the U.S. government's official web portal to all federal, state and local government web resources and services.